createdAt,value
2023-11-07T00:00:31.728Z,6.13
2023-11-07T00:10:55.093Z,6.07
2023-11-07T00:20:58.682Z,6.08
2023-11-07T00:31:02.076Z,6.22
2023-11-07T00:41:05.770Z,6.33
2023-11-07T00:51:12.817Z,6.42
2023-11-07T01:01:20.153Z,6.52
2023-11-07T01:11:23.503Z,6.51
2023-11-07T01:21:27.175Z,6.63
2023-11-07T01:31:30.748Z,6.86
2023-11-07T01:41:34.288Z,7.07
2023-11-07T01:51:37.490Z,7.25
2023-11-07T02:01:44.412Z,7.56
2023-11-07T02:11:48.078Z,7.73
2023-11-07T02:21:51.503Z,7.74
2023-11-07T02:31:55.113Z,7.79
2023-11-07T02:41:58.443Z,7.86
2023-11-07T02:52:01.885Z,7.84
2023-11-07T03:02:05.622Z,7.84
2023-11-07T03:12:09.891Z,7.89
2023-11-07T03:22:13.497Z,7.79
2023-11-07T03:32:17.241Z,7.56
2023-11-07T03:42:20.608Z,7.47
2023-11-07T03:52:24.050Z,7.56
2023-11-07T04:02:27.378Z,7.50
2023-11-07T04:12:30.551Z,7.30
2023-11-07T04:22:33.957Z,6.90
2023-11-07T04:32:39.086Z,6.73
2023-11-07T04:42:42.594Z,6.67
2023-11-07T04:52:46.160Z,6.48
2023-11-07T05:02:50.211Z,5.93
2023-11-07T05:12:53.918Z,5.68
2023-11-07T05:22:57.312Z,5.65
2023-11-07T05:33:00.245Z,5.65
2023-11-07T05:43:04.230Z,5.66
2023-11-07T05:53:07.724Z,5.60
2023-11-07T06:03:11.597Z,5.55
2023-11-07T06:13:15.846Z,5.59
2023-11-07T06:23:18.922Z,5.84
2023-11-07T06:33:22.567Z,6.19
2023-11-07T06:43:26.497Z,6.64
2023-11-07T06:53:30.794Z,6.98
2023-11-07T07:03:34.581Z,7.46
2023-11-07T07:13:38.037Z,8.88
2023-11-07T07:23:41.649Z,10.82
2023-11-07T07:33:45.546Z,12.37
2023-11-07T07:43:48.463Z,13.66
2023-11-07T07:53:53.859Z,14.22
2023-11-07T08:03:56.681Z,14.60
2023-11-07T08:14:00.713Z,14.50
2023-11-07T08:24:04.366Z,13.76
2023-11-07T08:34:08.101Z,13.02
2023-11-07T08:44:11.878Z,13.18
2023-11-07T08:54:15.395Z,12.95
2023-11-07T09:04:19.035Z,12.89
2023-11-07T09:14:22.592Z,12.66
2023-11-07T09:24:26.210Z,12.51
2023-11-07T09:34:30.169Z,12.59
2023-11-07T09:44:36.131Z,12.76
2023-11-07T09:54:42.005Z,12.97
2023-11-07T10:04:46.573Z,13.24
2023-11-07T10:14:50.547Z,13.35
2023-11-07T10:24:54.601Z,13.32
2023-11-07T10:35:01.796Z,13.26
2023-11-07T10:45:10.794Z,13.35
2023-11-07T10:55:14.028Z,13.36
2023-11-07T11:05:18.186Z,13.26
2023-11-07T11:15:23.651Z,13.30
2023-11-07T11:25:32.678Z,13.35
2023-11-07T11:35:38.836Z,13.36
2023-11-07T11:45:46.923Z,13.30
2023-11-07T11:56:09.730Z,13.26
2023-11-07T12:06:13.906Z,13.50
2023-11-07T12:16:17.248Z,13.40
2023-11-07T12:26:21.823Z,13.24
2023-11-07T12:36:25.305Z,12.79
2023-11-07T12:46:31.529Z,12.67
2023-11-07T12:56:40.903Z,12.35
2023-11-07T13:06:56.644Z,12.16
2023-11-07T13:17:00.059Z,12.29
2023-11-07T13:27:03.146Z,12.55
2023-11-07T13:37:06.168Z,12.53
2023-11-07T13:47:10.679Z,12.36
2023-11-07T13:57:14.568Z,12.26
2023-11-07T14:07:18.791Z,12.08
2023-11-07T14:17:22.982Z,11.75
2023-11-07T14:27:26.646Z,11.52
2023-11-07T14:37:30.170Z,11.38
2023-11-07T14:47:34.398Z,11.22
2023-11-07T14:57:38.337Z,10.93
2023-11-07T15:07:42.322Z,10.61
2023-11-07T15:17:45.898Z,10.40
2023-11-07T15:27:51.470Z,10.30
2023-11-07T15:37:55.570Z,10.24
2023-11-07T15:47:59.307Z,10.03
2023-11-07T15:58:03.184Z,9.54
2023-11-07T16:08:07.510Z,8.83
2023-11-07T16:18:12.361Z,8.52
2023-11-07T16:28:16.533Z,8.32
2023-11-07T16:38:19.983Z,8.15
2023-11-07T16:48:24.743Z,8.06
2023-11-07T16:58:28.776Z,7.67
2023-11-07T17:08:32.445Z,7.33
2023-11-07T17:18:36.671Z,7.14
2023-11-07T17:28:39.849Z,7.07
2023-11-07T17:38:43.497Z,7.11
2023-11-07T17:48:46.888Z,7.00
2023-11-07T17:58:53.284Z,6.71
2023-11-07T18:08:56.925Z,6.58
2023-11-07T18:19:00.629Z,6.52
2023-11-07T18:29:04.730Z,6.51
2023-11-07T18:39:08.313Z,6.48
2023-11-07T18:49:13.591Z,6.38
2023-11-07T18:59:30.741Z,6.27
2023-11-07T19:09:38.936Z,6.19
2023-11-07T19:19:42.312Z,6.02
2023-11-07T19:29:46.546Z,5.99
2023-11-07T19:39:51.159Z,5.94
2023-11-07T19:49:54.754Z,5.85
2023-11-07T19:59:58.818Z,5.80
2023-11-07T20:10:01.514Z,5.82
2023-11-07T20:20:09.931Z,5.79
2023-11-07T20:30:13.454Z,5.68
2023-11-07T20:40:17.247Z,5.56
2023-11-07T20:50:20.486Z,5.51
2023-11-07T21:00:24.382Z,5.58
2023-11-07T21:10:28.219Z,5.66
2023-11-07T21:20:31.251Z,5.72
2023-11-07T21:30:34.726Z,5.76
2023-11-07T21:40:37.614Z,5.85
2023-11-07T21:50:41.390Z,5.80
2023-11-07T22:10:48.523Z,5.80
2023-11-07T22:20:51.948Z,5.84
2023-11-07T22:30:56.036Z,5.96
2023-11-07T22:41:00.250Z,6.05
2023-11-07T22:51:04.112Z,5.97
2023-11-07T23:01:07.921Z,5.92
2023-11-07T23:11:10.676Z,6.00
2023-11-07T23:21:14.450Z,6.10
2023-11-07T23:31:18.076Z,6.19
2023-11-07T23:41:21.804Z,6.29
2023-11-07T23:51:25.415Z,6.38
